メインページ
METAR-TAF:

METAR-TAF

空港 :

新千歳空港

千歳, 日本

緯度: 42-48N, 経度: 141-40E, 海抜: 27m

現時点の気象観測

当レポートは11分前の09:00(UTC)に作成
南/南東の風 14kt
気温 11°C
湿度 71%
気圧 1013 hPa
視程10km以上
高度1500ftの雲はほとんどない
高度3000ftの千切れ雲あり
弱いにわか雨

METAR: RJCC 240900Z 16014KT 9999 -SHRA FEW015 BKN030 11/06 Q1013 RMK 1ST015 7CU030 A2992

時間: 18:11 (09:11 UTC)

予報

当レポートは4時間6分前の05:05(UTC)に作成
予報は24日の 06時(UTC)から 25日の 12時(UTC)まで有効
南/南東の風 20kt
視程10km以上
高度800ftの雲はほとんどない
高度2000ftの千切れ雲あり
24日の 12時(UTC)から 24日の 21時(UTC)まで一時的に
南/南東の風 25kt、最大38ktの突風を伴う
視程: 3000m
高度300ftの雲はほとんどない
高度500ftの千切れ雲あり
にわか雨, 靄
24日の 21時(UTC)から 25日の 00時(UTC)まで一時的に
視程: 3000m
高度300ftの雲はほとんどない
高度500ftの千切れ雲あり
にわか雨, 靄
25日の 00時(UTC)から 25日の 03時(UTC)まで一時的に
視程: 4000m
高度300ftの雲はほとんどない
高度600ftの千切れ雲あり
弱いにわか雨, 靄
25日の 09時(UTC)から 25日の 12時(UTC)まで徐々に
南/南東の風 10kt

TAF: RJCC 240505Z 2406/2512 15020KT 9999 FEW008 BKN020 TEMPO 2412/2421 15025G38KT 3000 SHRA BR FEW003 BKN005 TEMPO 2421/2500 3000 SHRA BR FEW003 BKN005 TEMPO 2500/2503 4000 -SHRA BR FEW003 BKN006 BECMG 2509/2512 16010KT

4,000以上の空港の気象観測と天気予報(METAR報とTAF報)

利用可能な観測所は地図上に黄色い丸と赤い丸で示す。

丸の上にカーソルを重ねると観測所名を参照できる。

次にクリックすると気象観測と天気予報を参照できる。

マップの切り替え:黒色「×」印の緑ボタンをクリックして拡大、「-」印の緑ボタンをクリックして縮小、緑色の三角印をクリックして隣りの地図に切り替え


METAR-TAF: